createdAt,value
2019-04-05T00:00:06.614Z,28.90
2019-04-05T00:02:38.449Z,27.50
2019-04-05T00:05:08.615Z,26.93
2019-04-05T00:07:38.765Z,27.20
2019-04-05T00:10:09.524Z,27.80
2019-04-05T00:12:39.675Z,24.70
2019-04-05T00:15:15.657Z,26.27
2019-04-05T00:17:44.299Z,27.03
2019-04-05T00:20:16.163Z,26.10
2019-04-05T00:22:46.324Z,24.07
2019-04-05T00:25:16.484Z,24.53
2019-04-05T00:27:48.228Z,25.67
2019-04-05T00:30:18.783Z,24.87
2019-04-05T00:32:48.959Z,24.03
2019-04-05T00:35:19.115Z,24.57
2019-04-05T00:37:49.263Z,23.07
2019-04-05T00:40:19.441Z,22.10
2019-04-05T00:42:49.583Z,23.17
2019-04-05T00:45:28.141Z,25.00
2019-04-05T00:47:51.616Z,23.53
2019-04-05T00:50:22.078Z,22.20
2019-04-05T00:53:00.156Z,24.83
2019-04-05T00:55:30.300Z,25.00
2019-04-05T00:58:00.529Z,23.70
2019-04-05T01:00:30.710Z,24.67
2019-04-05T01:03:00.860Z,24.50
2019-04-05T01:05:31.046Z,25.10
2019-04-05T01:08:01.196Z,25.03
2019-04-05T01:10:31.411Z,24.47
2019-04-05T01:13:01.644Z,26.47
2019-04-05T01:15:40.678Z,24.70
2019-04-05T01:18:03.691Z,24.73
2019-04-05T01:20:36.470Z,24.03
2019-04-05T01:23:06.712Z,25.80
2019-04-05T01:25:37.798Z,26.77
2019-04-05T01:28:09.453Z,24.70
2019-04-05T01:30:39.625Z,24.80
2019-04-05T01:33:09.759Z,26.17
2019-04-05T01:35:39.951Z,25.40
2019-04-05T01:38:11.744Z,25.93
2019-04-05T01:40:43.771Z,26.40
2019-04-05T01:43:14.054Z,27.50
2019-04-05T01:45:53.478Z,26.63
2019-04-05T01:48:16.832Z,26.30
2019-04-05T01:50:46.956Z,24.53
2019-04-05T01:53:17.503Z,25.97
2019-04-05T01:55:47.640Z,25.50
2019-04-05T01:58:17.799Z,26.63
2019-04-05T02:00:48.102Z,25.27
2019-04-05T02:03:18.259Z,24.10
2019-04-05T02:05:48.412Z,22.97
2019-04-05T02:08:18.602Z,22.20
2019-04-05T02:10:48.884Z,23.37
2019-04-05T02:13:19.040Z,22.03
2019-04-05T02:15:49.188Z,25.73
2019-04-05T02:18:19.409Z,25.10
2019-04-05T02:20:49.589Z,26.27
2019-04-05T02:23:20.747Z,27.20
2019-04-05T02:25:50.926Z,25.20
2019-04-05T02:28:21.080Z,26.97
2019-04-05T02:30:51.236Z,24.70
2019-04-05T02:33:21.395Z,27.97
2019-04-05T02:35:51.581Z,26.00
2019-04-05T02:38:21.802Z,27.30
2019-04-05T02:40:53.273Z,27.27
2019-04-05T02:43:27.946Z,27.07
2019-04-05T02:45:58.714Z,27.23
2019-04-05T02:48:30.835Z,27.50
2019-04-05T02:51:03.673Z,27.20
2019-04-05T02:53:36.415Z,28.50
2019-04-05T02:56:07.907Z,29.20
2019-04-05T02:58:38.709Z,24.90
2019-04-05T03:01:09.661Z,28.47
2019-04-05T03:03:40.604Z,27.73
2019-04-05T03:06:11.179Z,28.80
2019-04-05T03:08:42.107Z,27.83
2019-04-05T03:11:14.272Z,28.73
2019-04-05T03:13:57.222Z,30.57
2019-04-05T03:16:40.682Z,32.47
2019-04-05T03:19:15.474Z,31.37
2019-04-05T03:21:50.968Z,35.60
2019-04-05T03:24:25.273Z,33.00
2019-04-05T03:27:09.878Z,32.20
2019-04-05T03:29:40.264Z,30.03
2019-04-05T03:32:10.683Z,30.20
2019-04-05T03:34:41.099Z,30.33
2019-04-05T03:37:11.424Z,31.30
2019-04-05T03:39:42.078Z,31.90
2019-04-05T03:42:12.575Z,32.07
2019-04-05T03:44:43.626Z,32.30
2019-04-05T03:47:13.999Z,31.50
2019-04-05T03:49:44.745Z,30.90
2019-04-05T03:52:14.976Z,32.77
2019-04-05T03:54:45.589Z,32.20
2019-04-05T03:57:15.845Z,33.80
2019-04-05T03:59:46.143Z,35.70
2019-04-05T04:02:16.428Z,33.07
2019-04-05T04:04:46.667Z,35.00
2019-04-05T04:07:16.899Z,37.00
2019-04-05T04:09:47.135Z,34.30
2019-04-05T04:12:18.477Z,37.80
2019-04-05T04:14:49.463Z,34.50
2019-04-05T04:17:19.611Z,33.67
2019-04-05T04:19:49.782Z,36.20
2019-04-05T04:22:27.581Z,36.87
2019-04-05T04:24:58.894Z,33.87
2019-04-05T04:27:30.454Z,36.90
2019-04-05T04:30:01.077Z,36.20
2019-04-05T04:32:31.672Z,35.73
2019-04-05T04:35:02.155Z,39.93
2019-04-05T04:37:32.423Z,36.30
2019-04-05T04:40:03.732Z,36.40
2019-04-05T04:42:34.015Z,37.30
2019-04-05T04:45:11.885Z,39.43
2019-04-05T04:47:38.562Z,37.80
2019-04-05T04:50:09.566Z,39.37
2019-04-05T04:52:40.203Z,38.93
2019-04-05T04:55:10.699Z,39.17
2019-04-05T04:57:41.048Z,39.77
2019-04-05T05:00:11.215Z,39.30
2019-04-05T05:02:41.753Z,38.27
2019-04-05T05:05:12.711Z,38.47
2019-04-05T05:07:43.009Z,37.27
2019-04-05T05:10:13.801Z,37.70
2019-04-05T05:12:44.191Z,36.90
2019-04-05T05:15:14.460Z,37.30
2019-04-05T05:17:57.684Z,38.37
2019-04-05T05:20:18.131Z,36.43
2019-04-05T05:22:48.404Z,38.17
2019-04-05T05:25:18.645Z,38.07
2019-04-05T05:27:49.050Z,40.33
2019-04-05T05:30:19.581Z,36.20
2019-04-05T05:32:49.841Z,37.90
2019-04-05T05:35:20.095Z,38.53
2019-04-05T05:37:50.269Z,39.70
2019-04-05T05:40:33.801Z,37.00
2019-04-05T05:42:52.378Z,37.90
2019-04-05T05:45:22.549Z,39.47
2019-04-05T05:47:52.715Z,36.70
2019-04-05T05:50:22.865Z,37.00
2019-04-05T05:52:53.436Z,39.63
2019-04-05T05:55:23.613Z,37.80
2019-04-05T05:57:54.907Z,37.10
2019-04-05T06:00:25.666Z,34.53
2019-04-05T06:02:55.891Z,34.90
2019-04-05T06:05:26.055Z,33.83
2019-04-05T06:07:56.207Z,34.10
2019-04-05T06:10:26.356Z,34.57
2019-04-05T06:12:58.727Z,33.33
2019-04-05T06:15:28.436Z,33.97
2019-04-05T06:18:04.522Z,33.73
2019-04-05T06:20:30.604Z,35.83
2019-04-05T06:23:00.785Z,35.87
2019-04-05T06:25:30.922Z,37.10
2019-04-05T06:28:01.080Z,36.20
2019-04-05T06:30:31.245Z,32.47
2019-04-05T06:33:01.489Z,32.73
2019-04-05T06:35:31.611Z,31.10
2019-04-05T06:38:01.846Z,29.07
2019-04-05T06:40:40.813Z,29.73
2019-04-05T06:43:06.738Z,29.60
2019-04-05T06:45:36.833Z,28.63
2019-04-05T06:48:18.468Z,24.63
2019-04-05T06:50:38.871Z,26.57
2019-04-05T06:53:09.059Z,28.03
2019-04-05T06:55:39.191Z,28.43
2019-04-05T06:58:10.503Z,27.57
2019-04-05T07:00:40.816Z,28.10
2019-04-05T07:03:13.564Z,27.40
2019-04-05T07:05:42.910Z,25.87
2019-04-05T07:08:13.062Z,24.83
2019-04-05T07:10:45.305Z,25.60
2019-04-05T07:13:15.975Z,25.37
2019-04-05T07:15:46.211Z,25.63
2019-04-05T07:18:16.391Z,26.67
2019-04-05T07:20:46.560Z,25.17
2019-04-05T07:23:16.731Z,22.37
2019-04-05T07:25:46.931Z,21.53
2019-04-05T07:28:17.084Z,21.90
2019-04-05T07:30:47.228Z,20.50
2019-04-05T07:33:19.742Z,18.90
2019-04-05T07:35:49.903Z,19.60
2019-04-05T07:38:20.077Z,19.77
2019-04-05T07:40:50.219Z,20.60
2019-04-05T07:43:20.388Z,19.23
2019-04-05T07:45:50.568Z,19.83
2019-04-05T07:48:20.732Z,17.43
2019-04-05T07:50:50.923Z,16.27
2019-04-05T07:53:21.177Z,17.17
2019-04-05T07:55:51.371Z,18.40
2019-04-05T07:58:21.555Z,18.57
2019-04-05T08:00:56.005Z,18.53
2019-04-05T08:03:26.382Z,18.63
2019-04-05T08:05:56.566Z,19.40
2019-04-05T08:08:35.844Z,19.83
2019-04-05T08:11:06.433Z,18.50
2019-04-05T08:13:38.609Z,22.20
2019-04-05T08:16:08.769Z,20.30
2019-04-05T08:18:38.952Z,20.13
2019-04-05T08:21:09.102Z,18.60
2019-04-05T08:23:39.267Z,20.50
2019-04-05T08:26:09.410Z,21.30
2019-04-05T08:28:39.598Z,24.00
2019-04-05T08:31:10.725Z,20.93
2019-04-05T08:33:41.289Z,21.00
2019-04-05T08:36:11.433Z,21.27
2019-04-05T08:38:41.785Z,19.20
2019-04-05T08:41:11.925Z,19.20
2019-04-05T08:43:42.097Z,20.80
2019-04-05T08:46:12.263Z,19.80
2019-04-05T08:48:42.408Z,17.67
2019-04-05T08:51:12.567Z,19.30
2019-04-05T08:53:42.711Z,17.20
2019-04-05T08:56:12.964Z,17.80
2019-04-05T08:58:43.124Z,19.00
2019-04-05T09:01:13.272Z,17.50
2019-04-05T09:03:43.467Z,18.70
2019-04-05T09:06:13.704Z,21.70
2019-04-05T09:08:43.916Z,20.73
2019-04-05T09:11:14.092Z,20.50
2019-04-05T09:13:44.295Z,20.10
2019-04-05T09:16:14.528Z,19.93
2019-04-05T09:18:44.730Z,21.10
2019-04-05T09:21:17.555Z,22.40
2019-04-05T09:23:46.959Z,25.90
2019-04-05T09:26:17.153Z,23.10
2019-04-05T09:28:47.335Z,22.43
2019-04-05T09:31:17.527Z,22.63
2019-04-05T09:33:47.667Z,23.43
2019-04-05T09:36:17.833Z,22.67
2019-04-05T09:38:48.048Z,21.87
2019-04-05T09:41:18.631Z,23.27
2019-04-05T09:43:48.795Z,18.53
2019-04-05T09:46:18.937Z,21.10
2019-04-05T09:48:49.084Z,22.90
2019-04-05T09:51:19.241Z,20.53
2019-04-05T09:53:49.419Z,20.07
2019-04-05T09:56:19.599Z,19.70
2019-04-05T09:58:49.791Z,21.67
2019-04-05T10:01:20.048Z,19.87
2019-04-05T10:03:50.288Z,17.93
2019-04-05T10:06:20.459Z,20.47
2019-04-05T10:08:50.731Z,20.20
2019-04-05T10:11:20.964Z,20.20
2019-04-05T10:13:51.110Z,19.63
2019-04-05T10:16:21.308Z,24.80
2019-04-05T10:18:52.567Z,23.87
2019-04-05T10:21:22.731Z,24.00
2019-04-05T10:23:52.904Z,20.60
2019-04-05T10:26:23.087Z,19.43
2019-04-05T10:28:53.297Z,19.17
2019-04-05T10:31:23.489Z,20.23
2019-04-05T10:33:53.622Z,21.67
2019-04-05T10:36:23.792Z,21.10
2019-04-05T10:38:53.960Z,19.07
2019-04-05T10:41:24.163Z,18.73
2019-04-05T10:43:54.369Z,15.07
2019-04-05T10:46:24.599Z,15.90
2019-04-05T10:48:54.780Z,16.20
2019-04-05T10:51:24.964Z,19.07
2019-04-05T10:53:55.130Z,16.00
2019-04-05T10:56:25.377Z,17.60
2019-04-05T10:58:55.550Z,15.60
2019-04-05T11:01:25.747Z,17.83
2019-04-05T11:03:55.904Z,18.30
2019-04-05T11:06:26.096Z,18.67
2019-04-05T11:08:56.276Z,14.77
2019-04-05T11:11:26.472Z,14.17
2019-04-05T11:13:56.615Z,16.10
2019-04-05T11:16:26.900Z,13.93
2019-04-05T11:18:57.074Z,13.80
2019-04-05T11:21:27.240Z,15.10
2019-04-05T11:23:57.450Z,14.70
2019-04-05T11:26:27.705Z,14.43
2019-04-05T11:28:57.871Z,12.67
2019-04-05T11:32:15.468Z,13.10
2019-04-05T11:34:45.733Z,14.93
2019-04-05T11:37:16.883Z,16.87
2019-04-05T11:39:49.631Z,18.13
2019-04-05T11:42:22.811Z,18.63
2019-04-05T11:44:56.087Z,20.70
2019-04-05T11:47:26.739Z,19.43
2019-04-05T11:49:59.357Z,16.17
2019-04-05T11:52:29.584Z,14.97
2019-04-05T11:54:59.781Z,15.47
2019-04-05T11:57:29.970Z,14.67
2019-04-05T12:00:00.116Z,14.77
2019-04-05T12:02:37.079Z,15.80
2019-04-05T12:05:07.508Z,13.67
2019-04-05T12:07:37.716Z,13.80
2019-04-05T12:10:08.675Z,14.83
2019-04-05T12:12:38.827Z,11.50
2019-04-05T12:15:09.105Z,12.40
2019-04-05T12:17:39.348Z,11.73
2019-04-05T12:20:10.024Z,16.10
2019-04-05T12:22:41.146Z,18.23
2019-04-05T12:25:11.487Z,17.97
2019-04-05T12:27:41.656Z,17.50
2019-04-05T12:30:13.832Z,18.30
2019-04-05T12:32:44.010Z,18.33
2019-04-05T12:35:14.225Z,18.27
2019-04-05T12:37:50.502Z,18.00
2019-04-05T12:40:16.503Z,17.53
2019-04-05T12:42:46.689Z,20.17
2019-04-05T12:45:16.850Z,20.30
2019-04-05T12:47:48.140Z,18.37
2019-04-05T12:50:18.367Z,20.23
2019-04-05T12:52:48.553Z,20.90
2019-04-05T12:55:18.743Z,21.10
2019-04-05T12:57:48.959Z,22.30
2019-04-05T13:00:19.359Z,22.17
2019-04-05T13:02:50.480Z,22.10
2019-04-05T13:05:21.757Z,19.13
2019-04-05T13:07:53.416Z,18.30
2019-04-05T13:10:26.161Z,18.80
2019-04-05T13:12:57.702Z,18.80
2019-04-05T13:15:27.424Z,18.70
2019-04-05T13:18:00.445Z,18.10
2019-04-05T13:20:30.363Z,16.43
2019-04-05T13:23:04.418Z,16.50
2019-04-05T13:25:33.426Z,17.33
2019-04-05T13:28:12.726Z,17.57
2019-04-05T13:30:35.490Z,15.77
2019-04-05T13:33:05.726Z,16.30
2019-04-05T13:35:35.887Z,15.37
2019-04-05T13:38:06.119Z,13.47
2019-04-05T13:40:36.427Z,14.13
2019-04-05T13:43:06.650Z,15.33
2019-04-05T13:45:36.828Z,13.47
2019-04-05T13:48:08.914Z,13.57
2019-04-05T13:50:41.423Z,15.63
2019-04-05T13:53:11.406Z,18.60
2019-04-05T13:55:42.060Z,17.13
2019-04-05T13:58:12.249Z,15.87
2019-04-05T14:00:48.497Z,17.90
2019-04-05T14:03:18.593Z,17.20
2019-04-05T14:05:50.079Z,16.47
2019-04-05T14:08:20.551Z,18.43
2019-04-05T14:10:50.731Z,20.07
2019-04-05T14:13:20.929Z,19.13
2019-04-05T14:15:51.073Z,17.47
2019-04-05T14:18:21.238Z,19.83
2019-04-05T14:20:51.402Z,17.97
2019-04-05T14:23:23.915Z,17.73
2019-04-05T14:25:53.436Z,18.20
2019-04-05T14:28:23.576Z,17.87
2019-04-05T14:30:53.773Z,23.27
2019-04-05T14:33:24.793Z,23.10
2019-04-05T14:35:55.648Z,21.40
2019-04-05T14:38:25.846Z,19.87
2019-04-05T14:40:56.042Z,20.23
2019-04-05T14:43:26.260Z,18.37
2019-04-05T14:45:56.419Z,17.43
2019-04-05T14:48:28.046Z,19.77
2019-04-05T14:50:58.584Z,20.00
2019-04-05T14:53:31.742Z,19.77
2019-04-05T14:56:00.664Z,19.80
2019-04-05T14:58:30.836Z,20.30
2019-04-05T15:01:01.008Z,20.30
2019-04-05T15:03:31.293Z,20.57
2019-04-05T15:06:01.492Z,18.40
2019-04-05T15:08:31.684Z,19.80
2019-04-05T15:11:01.874Z,20.00
2019-04-05T15:13:32.033Z,21.13
2019-04-05T15:16:02.256Z,20.67
2019-04-05T15:18:32.594Z,19.90
2019-04-05T15:21:05.481Z,21.20
2019-04-05T15:23:34.717Z,20.40
2019-04-05T15:26:05.580Z,20.10
2019-04-05T15:28:38.860Z,21.53
2019-04-05T15:31:07.799Z,21.90
2019-04-05T15:33:38.968Z,22.53
2019-04-05T15:36:09.241Z,22.40
2019-04-05T15:38:39.484Z,21.13
2019-04-05T15:41:09.689Z,22.10
2019-04-05T15:43:39.844Z,22.97
2019-04-05T15:46:10.052Z,22.87
2019-04-05T15:48:40.199Z,22.20
2019-04-05T15:51:10.376Z,21.70
2019-04-05T15:53:40.583Z,22.70
2019-04-05T15:56:10.753Z,26.80
2019-04-05T15:58:46.803Z,25.73
2019-04-05T16:01:17.214Z,24.70
2019-04-05T16:03:47.483Z,24.63
2019-04-05T16:06:17.650Z,20.80
2019-04-05T16:08:47.866Z,19.87
2019-04-05T16:11:19.027Z,19.93
2019-04-05T16:13:49.218Z,20.87
2019-04-05T16:16:19.411Z,20.40
2019-04-05T16:18:49.624Z,20.63
2019-04-05T16:21:19.845Z,20.53
2019-04-05T16:23:50.022Z,20.80
2019-04-05T16:26:21.203Z,20.33
2019-04-05T16:28:51.440Z,20.03
2019-04-05T16:31:21.625Z,20.13
2019-04-05T16:33:51.803Z,20.50
2019-04-05T16:36:22.078Z,19.90
2019-04-05T16:38:52.267Z,21.17
2019-04-05T16:41:22.451Z,20.07
2019-04-05T16:43:52.616Z,20.13
2019-04-05T16:46:22.828Z,20.80
2019-04-05T16:48:52.981Z,21.70
2019-04-05T16:51:23.259Z,20.83
2019-04-05T16:54:31.548Z,20.90
2019-04-05T16:57:01.867Z,21.70
2019-04-05T16:59:31.987Z,21.20
2019-04-05T17:02:02.211Z,21.40
2019-04-05T17:04:32.356Z,20.50
2019-04-05T17:07:02.531Z,19.90
2019-04-05T17:09:33.808Z,20.90
2019-04-05T17:12:04.063Z,20.77
2019-04-05T17:14:34.323Z,22.10
2019-04-05T17:17:04.639Z,20.90
2019-04-05T17:19:34.844Z,22.00
2019-04-05T17:22:05.047Z,21.93
2019-04-05T17:24:35.215Z,24.47
2019-04-05T17:27:05.592Z,21.87
2019-04-05T17:29:35.836Z,20.27
2019-04-05T17:32:05.996Z,20.50
2019-04-05T17:34:36.236Z,19.87
2019-04-05T17:37:06.427Z,20.20
2019-04-05T17:39:36.580Z,21.30
2019-04-05T17:42:06.800Z,22.10
2019-04-05T17:44:37.020Z,21.53
2019-04-05T17:47:07.196Z,22.77
2019-04-05T17:49:38.363Z,22.90
2019-04-05T17:52:08.568Z,20.80
2019-04-05T17:54:38.740Z,21.70
2019-04-05T17:57:08.987Z,21.20
2019-04-05T17:59:39.972Z,20.80
2019-04-05T18:02:10.194Z,22.13
2019-04-05T18:04:40.384Z,20.40
2019-04-05T18:07:11.655Z,21.63
2019-04-05T18:09:41.884Z,21.50
2019-04-05T18:12:12.082Z,22.00
2019-04-05T18:14:42.295Z,22.50
2019-04-05T18:17:12.524Z,21.63
2019-04-05T18:19:42.771Z,22.40
2019-04-05T18:22:12.984Z,22.90
2019-04-05T18:24:43.112Z,24.13
2019-04-05T18:27:13.311Z,24.07
2019-04-05T18:29:43.455Z,23.97
2019-04-05T18:32:13.695Z,24.37
2019-04-05T18:34:43.853Z,23.70
2019-04-05T18:37:14.048Z,26.40
2019-04-05T18:39:44.233Z,28.47
2019-04-05T18:42:14.413Z,28.50
2019-04-05T18:44:44.589Z,29.20
2019-04-05T18:47:14.801Z,28.27
2019-04-05T18:49:45.040Z,30.13
2019-04-05T18:52:15.239Z,30.40
2019-04-05T18:54:45.452Z,31.73
2019-04-05T18:57:15.629Z,30.53
2019-04-05T18:59:45.820Z,30.40
2019-04-05T19:02:16.057Z,30.80
2019-04-05T19:04:46.246Z,31.10
2019-04-05T19:07:16.441Z,30.80
2019-04-05T19:09:46.589Z,30.90
2019-04-05T19:12:16.762Z,33.87
2019-04-05T19:14:46.971Z,29.70
2019-04-05T19:17:23.909Z,33.10
2019-04-05T19:19:49.039Z,33.10
2019-04-05T19:22:19.249Z,32.20
2019-04-05T19:24:49.420Z,32.83
2019-04-05T19:27:19.714Z,31.03
2019-04-05T19:29:50.860Z,32.67
2019-04-05T19:50:06.512Z,30.77
2019-04-05T19:52:36.696Z,30.17
2019-04-05T19:55:07.694Z,29.33
2019-04-05T19:57:37.935Z,29.57
2019-04-05T20:00:08.422Z,30.50
2019-04-05T20:02:38.656Z,29.80
2019-04-05T20:05:09.079Z,28.77
2019-04-05T20:07:39.387Z,30.50
2019-04-05T20:10:09.694Z,31.30
2019-04-05T20:12:40.140Z,30.00
2019-04-05T20:15:10.425Z,30.30
2019-04-05T20:17:40.617Z,28.47
2019-04-05T20:20:11.939Z,31.90
2019-04-05T20:22:42.259Z,28.20
2019-04-05T20:25:12.545Z,31.90
2019-04-05T20:27:42.756Z,30.83
2019-04-05T20:30:13.227Z,31.70
2019-04-05T20:32:43.530Z,30.30
2019-04-05T20:35:13.794Z,30.30
2019-04-05T20:37:43.955Z,30.67
2019-04-05T20:40:14.265Z,29.40
2019-04-05T20:42:44.507Z,30.57
2019-04-05T20:45:15.584Z,28.23
2019-04-05T20:47:45.756Z,29.33
2019-04-05T20:50:15.918Z,29.30
2019-04-05T20:52:46.081Z,28.20
2019-04-05T20:55:17.246Z,30.13
2019-04-05T20:57:47.424Z,28.43
2019-04-05T21:00:18.299Z,29.83
2019-04-05T21:02:48.486Z,28.60
2019-04-05T21:05:25.390Z,28.43
2019-04-05T21:07:50.524Z,29.67
2019-04-05T21:10:20.715Z,30.50
2019-04-05T21:12:50.886Z,29.40
2019-04-05T21:15:21.063Z,29.70
2019-04-05T21:17:51.235Z,30.97
2019-04-05T21:20:21.408Z,31.10
2019-04-05T21:22:51.569Z,29.47
2019-04-05T21:25:21.757Z,30.10
2019-04-05T21:27:51.951Z,31.30
2019-04-05T21:30:22.171Z,30.73
2019-04-05T21:32:52.323Z,29.40
2019-04-05T21:35:22.487Z,31.53
2019-04-05T21:37:52.650Z,32.13
2019-04-05T21:40:22.887Z,32.20
2019-04-05T21:42:53.084Z,30.37
2019-04-05T21:45:23.258Z,32.80
2019-04-05T21:47:53.419Z,31.37
2019-04-05T21:50:23.611Z,32.13
2019-04-05T21:52:53.768Z,33.37
2019-04-05T21:55:24.005Z,32.57
2019-04-05T21:57:54.179Z,29.67
2019-04-05T22:00:27.973Z,29.70
2019-04-05T22:02:59.733Z,30.97
2019-04-05T22:05:29.931Z,31.17
2019-04-05T22:08:00.115Z,33.03
2019-04-05T22:10:30.412Z,31.77
2019-04-05T22:13:00.569Z,32.70
2019-04-05T22:15:30.788Z,32.57
2019-04-05T22:18:00.912Z,31.80
2019-04-05T22:20:31.064Z,33.00
2019-04-05T22:23:01.239Z,32.23
2019-04-05T22:25:31.435Z,33.40
2019-04-05T22:28:01.583Z,32.70
2019-04-05T22:30:31.779Z,32.20
2019-04-05T22:33:01.936Z,34.27
2019-04-05T22:35:32.202Z,32.17
2019-04-05T22:38:03.323Z,33.63
2019-04-05T22:40:33.597Z,34.60
2019-04-05T22:43:03.772Z,33.30
2019-04-05T22:45:33.947Z,33.50
2019-04-05T22:48:04.083Z,33.40
2019-04-05T22:50:34.276Z,33.43
2019-04-05T22:53:04.445Z,34.33
2019-04-05T22:55:34.687Z,35.10
2019-04-05T22:58:04.949Z,37.40
2019-04-05T23:00:35.336Z,34.40
2019-04-05T23:03:05.503Z,35.47
2019-04-05T23:05:36.074Z,36.57
2019-04-05T23:08:06.269Z,34.70
2019-04-05T23:10:36.477Z,35.70
2019-04-05T23:13:06.704Z,37.70
2019-04-05T23:15:36.899Z,35.40
2019-04-05T23:18:07.057Z,37.83
2019-04-05T23:20:37.286Z,36.53
2019-04-05T23:23:07.439Z,36.90
2019-04-05T23:25:37.611Z,35.60
2019-04-05T23:28:07.764Z,38.80
2019-04-05T23:30:37.924Z,36.50
2019-04-05T23:33:08.143Z,37.03
2019-04-05T23:35:38.335Z,38.13
2019-04-05T23:38:08.476Z,35.83
2019-04-05T23:40:38.656Z,37.50
2019-04-05T23:43:08.800Z,38.70
2019-04-05T23:45:39.046Z,36.57
2019-04-05T23:48:09.183Z,36.83
2019-04-05T23:50:39.370Z,37.20
2019-04-05T23:53:09.537Z,37.00
2019-04-05T23:55:39.697Z,37.50
2019-04-05T23:58:09.851Z,34.90
